Time;durP1;ratioP1;P1;durP2;ratioP2;P2;SDS_P1;SDS_P2;PMS_P1;PMS_P2;Temp;Humidity;BMP_temperature;BMP_pressure;BME280_temperature;BME280_humidity;BME280_pressure;Samples;Min_cycle;Max_cycle;Signal;HPM_P1;HPM_P2
2021/05/15 00:02:10;;;;;;;3.60;1.30;;;;;;;6.13;81.61;92030.97;4974802;28;20251;-74
2021/05/15 00:04:35;;;;;;;14.45;1.88;;;;;;;6.09;81.86;92030.72;4991480;28;20101;-74
2021/05/15 00:07:01;;;;;;;2.50;1.30;;;;;;;6.08;81.63;92030.97;4974277;28;20543;-74
2021/05/15 00:09:27;;;;;;;3.03;1.65;;;;;;;6.06;81.56;92028.66;4991419;28;20050;-74
2021/05/15 00:11:52;;;;;;;3.00;1.50;;;;;;;6.05;82.29;92032.28;4991392;28;20042;-74
2021/05/15 00:14:18;;;;;;;2.88;1.45;;;;;;;6.08;82.32;92036.97;4991032;28;20073;-74
2021/05/15 00:16:43;;;;;;;4.55;1.60;;;;;;;6.09;81.79;92033.31;4973924;28;20045;-74
2021/05/15 00:19:09;;;;;;;2.85;1.50;;;;;;;6.13;82.63;92034.31;4973530;28;20184;-74
2021/05/15 00:21:34;;;;;;;4.07;1.50;;;;;;;6.12;82.08;92042.38;5006095;28;20038;-74
2021/05/15 00:24:02;;;;;;;2.25;1.50;;;;;;;6.10;82.07;92047.06;4974239;28;20046;-74
2021/05/15 00:26:28;;;;;;;4.40;1.48;;;;;;;6.08;81.74;92044.75;4991290;28;20033;-74
2021/05/15 00:28:54;;;;;;;2.58;1.40;;;;;;;6.08;81.77;92042.16;4990918;28;20038;-74
2021/05/15 00:31:19;;;;;;;3.20;1.52;;;;;;;6.11;81.90;92030.44;5006506;28;20412;-74
2021/05/15 00:33:45;;;;;;;2.97;1.38;;;;;;;6.15;82.15;92037.44;4973451;28;20178;-74
2021/05/15 00:36:11;;;;;;;2.30;1.30;;;;;;;6.15;81.71;92031.47;5006288;28;20038;-74
2021/05/15 00:38:36;;;;;;;3.95;1.30;;;;;;;6.08;81.65;92029.16;4973191;28;20049;-74
2021/05/15 00:41:02;;;;;;;2.42;1.40;;;;;;;6.03;81.81;92040.38;4990934;28;20058;-74
2021/05/15 00:43:28;;;;;;;3.40;1.67;;;;;;;5.96;81.55;92039.88;4991024;28;20414;-74
2021/05/15 00:45:55;;;;;;;2.80;1.40;;;;;;;5.92;81.72;92038.84;4948731;28;20581;-74
2021/05/15 00:48:20;;;;;;;3.85;1.60;;;;;;;5.88;81.53;92037.81;4983420;28;20133;-74
2021/05/15 00:50:46;;;;;;;2.33;1.33;;;;;;;5.84;81.81;92036.78;4972022;28;20051;-74
2021/05/15 00:53:12;;;;;;;4.18;1.60;;;;;;;5.80;81.57;92043.56;4970222;28;20073;-74
2021/05/15 00:55:37;;;;;;;3.58;1.30;;;;;;;5.73;81.99;92043.84;4970834;28;20055;-74
2021/05/15 00:58:03;;;;;;;3.00;1.50;;;;;;;5.71;82.33;92039.97;4971220;28;20609;-74
2021/05/15 01:00:30;;;;;;;2.83;1.30;;;;;;;5.68;82.50;92043.88;4970989;28;20047;-74
2021/05/15 01:02:55;;;;;;;2.55;1.40;;;;;;;5.67;82.98;92041.53;4971787;28;20031;-74
2021/05/15 01:05:21;;;;;;;3.17;1.60;;;;;;;5.66;82.97;92042.59;4970635;28;20049;-74
2021/05/15 01:07:49;;;;;;;4.30;1.50;;;;;;;5.64;83.14;92043.63;4970877;28;20039;-74
2021/05/15 01:10:16;;;;;;;2.50;1.50;;;;;;;5.66;82.83;92040.00;4972558;28;20046;-74
2021/05/15 01:12:57;;;;;;;3.10;1.60;;;;;;;5.71;83.34;92048.53;4985851;28;20086;-74
2021/05/15 01:15:26;;;;;;;5.47;1.70;;;;;;;5.66;83.14;92045.97;4969458;28;20055;-74
2021/05/15 01:17:57;;;;;;;2.67;1.40;;;;;;;5.60;83.15;92042.59;4971043;28;20054;-74
2021/05/15 01:20:25;;;;;;;4.68;1.60;;;;;;;5.54;83.12;92035.88;4970392;28;20168;-74
2021/05/15 01:22:51;;;;;;;2.70;1.52;;;;;;;5.52;83.03;92045.00;4971128;28;20027;-74
2021/05/15 01:25:18;;;;;;;3.00;1.48;;;;;;;5.48;82.81;92039.53;4971046;28;20118;-74
2021/05/15 01:27:44;;;;;;;2.78;1.50;;;;;;;5.43;82.71;92042.94;4970888;28;20042;-74
2021/05/15 01:30:11;;;;;;;2.75;1.50;;;;;;;5.39;82.89;92043.72;4953540;28;20098;-74
2021/05/15 01:32:39;;;;;;;3.00;1.50;;;;;;;5.36;83.62;92044.25;4970702;28;20051;-74
2021/05/15 01:35:07;;;;;;;2.92;1.65;;;;;;;5.35;84.10;92045.28;4953252;28;20491;-74
2021/05/15 01:37:33;;;;;;;4.53;1.90;;;;;;;5.33;84.14;92039.56;4969565;28;20046;-74
2021/05/15 01:39:58;;;;;;;2.78;1.67;;;;;;;5.29;83.79;92049.72;4953663;28;20059;-74
2021/05/15 01:42:24;;;;;;;5.03;1.63;;;;;;;5.29;83.88;92041.94;4953380;28;20038;-74
2021/05/15 01:44:50;;;;;;;4.38;1.77;;;;;;;5.26;83.87;92047.66;4953440;28;20055;-74
2021/05/15 01:47:15;;;;;;;4.10;1.70;;;;;;;5.22;83.80;92042.22;4943562;28;20459;-74
2021/05/15 01:49:41;;;;;;;3.50;1.60;;;;;;;5.19;83.99;92037.53;4976989;28;20108;-74
2021/05/15 01:52:07;;;;;;;2.92;1.50;;;;;;;5.18;84.39;92038.59;5010342;28;20085;-74
2021/05/15 01:54:32;;;;;;;3.75;1.70;;;;;;;5.16;84.78;92032.88;4990101;28;20046;-74
2021/05/15 01:56:58;;;;;;;3.40;1.75;;;;;;;5.15;84.60;92040.91;5009906;28;20494;-74
2021/05/15 01:59:24;;;;;;;3.22;1.80;;;;;;;5.15;84.31;92036.50;4989784;28;20089;-74
2021/05/15 02:01:49;;;;;;;3.65;1.77;;;;;;;5.15;84.45;92040.91;4989958;28;20533;-74
2021/05/15 02:04:15;;;;;;;4.53;2.03;;;;;;;5.13;84.78;92043.00;4972853;28;20162;-74
2021/05/15 02:06:40;;;;;;;4.70;1.90;;;;;;;5.11;84.82;92047.66;5005144;28;20116;-75
2021/05/15 02:09:06;;;;;;;3.50;1.90;;;;;;;5.09;84.86;92052.34;4989784;28;20493;-74
2021/05/15 02:11:31;;;;;;;3.60;1.70;;;;;;;5.04;84.70;92049.78;4990404;28;20109;-75
2021/05/15 02:13:57;;;;;;;3.85;1.73;;;;;;;5.01;84.96;92046.66;4985738;28;20062;-75
2021/05/15 02:16:23;;;;;;;3.10;1.80;;;;;;;4.99;84.84;92045.38;4989280;28;20089;-75
2021/05/15 02:18:48;;;;;;;3.13;1.90;;;;;;;4.96;85.11;92049.25;4972319;28;20097;-74
2021/05/15 02:21:14;;;;;;;4.72;1.85;;;;;;;4.93;85.23;92043.81;4974408;28;20042;-75
2021/05/15 02:23:40;;;;;;;3.50;1.80;;;;;;;4.90;84.98;92029.56;4991995;28;20034;-75
2021/05/15 02:26:06;;;;;;;3.50;1.85;;;;;;;4.90;85.09;92026.19;4993677;28;20042;-75
2021/05/15 02:28:32;;;;;;;3.10;1.73;;;;;;;4.89;85.35;92027.25;4975636;28;20249;-75
2021/05/15 02:30:57;;;;;;;3.30;1.90;;;;;;;4.87;85.37;92024.91;4976427;28;20100;-75
2021/05/15 02:33:24;;;;;;;3.60;1.75;;;;;;;4.86;85.53;92023.31;4990489;28;20066;-75
2021/05/15 02:35:50;;;;;;;3.55;2.00;;;;;;;4.88;85.80;92025.66;4993877;28;20096;-75
2021/05/15 02:38:18;;;;;;;4.05;2.10;;;;;;;4.86;86.13;92019.97;4994152;28;20034;-75
2021/05/15 02:40:46;;;;;;;3.60;1.95;;;;;;;4.89;86.24;92025.41;4973593;28;20177;-75
2021/05/15 02:43:15;;;;;;;3.53;2.03;;;;;;;4.89;86.08;92022.06;4991874;28;20061;-75
2021/05/15 02:45:41;;;;;;;3.35;2.08;;;;;;;4.88;86.27;92020.47;5000214;28;20051;-75
2021/05/15 02:48:07;;;;;;;3.50;1.92;;;;;;;4.87;86.37;92024.13;4985200;28;20043;-74
2021/05/15 02:50:34;;;;;;;5.07;2.17;;;;;;;4.85;86.09;92019.19;4954928;28;20413;-74
2021/05/15 02:53:01;;;;;;;5.45;2.35;;;;;;;4.85;85.98;92028.78;4973126;28;20406;-74
2021/05/15 02:55:27;;;;;;;3.45;1.98;;;;;;;4.85;86.33;92033.97;4973020;28;20155;-74
2021/05/15 02:57:54;;;;;;;5.05;2.10;;;;;;;4.85;86.42;92024.38;5004567;28;20085;-74
2021/05/15 03:00:23;;;;;;;5.22;2.15;;;;;;;4.85;86.48;92031.38;4992322;28;20512;-74
2021/05/15 03:02:49;;;;;;;4.07;2.15;;;;;;;4.83;86.26;92036.06;4992729;28;20042;-75
2021/05/15 03:05:17;;;;;;;4.35;2.08;;;;;;;4.79;86.45;92033.19;4956777;28;20047;-74
2021/05/15 03:07:43;;;;;;;4.82;2.08;;;;;;;4.79;86.68;92036.56;4972938;28;20548;-74
2021/05/15 03:10:11;;;;;;;5.00;2.00;;;;;;;4.78;86.75;92035.03;4986112;28;20121;-74
2021/05/15 03:12:37;;;;;;;3.58;2.00;;;;;;;4.79;86.91;92033.97;4974680;28;20038;-74
2021/05/15 03:15:06;;;;;;;4.93;2.20;;;;;;;4.83;87.22;92033.47;4987927;28;20460;-73
2021/05/15 03:17:32;;;;;;;5.07;2.22;;;;;;;4.82;86.81;92037.09;4974764;28;20046;-74
2021/05/15 03:19:57;;;;;;;3.78;2.08;;;;;;;4.80;86.31;92039.94;4976260;28;20136;-74
2021/05/15 03:22:23;;;;;;;3.97;2.40;;;;;;;4.79;86.56;92040.97;4972677;28;20074;-74
2021/05/15 03:24:49;;;;;;;3.65;2.00;;;;;;;4.78;86.58;92044.63;4994196;28;20045;-74
2021/05/15 03:27:15;;;;;;;3.47;1.80;;;;;;;4.75;86.60;92045.13;4992150;28;20043;-74
2021/05/15 03:29:42;;;;;;;3.47;1.90;;;;;;;4.73;86.60;92044.63;4970917;28;20038;-74
2021/05/15 03:32:09;;;;;;;3.17;1.80;;;;;;;4.72;87.11;92043.06;4971139;28;20034;-74
2021/05/15 03:34:34;;;;;;;3.85;1.90;;;;;;;4.72;86.84;92043.84;4972146;28;20039;-74
2021/05/15 03:37:00;;;;;;;4.10;1.95;;;;;;;4.70;86.95;92032.94;4973112;28;20519;-73
2021/05/15 03:39:26;;;;;;;3.95;1.80;;;;;;;4.69;86.84;92041.78;4990693;28;20140;-73
2021/05/15 03:41:51;;;;;;;3.00;1.85;;;;;;;4.69;86.46;92044.38;4991474;28;20042;-73
2021/05/15 03:44:17;;;;;;;3.70;2.00;;;;;;;4.65;86.21;92038.13;4958639;28;20386;-74
2021/05/15 03:46:43;;;;;;;4.60;2.15;;;;;;;4.65;86.53;92042.56;4989230;28;20085;-74
2021/05/15 03:49:08;;;;;;;6.50;2.20;;;;;;;4.63;86.43;92039.44;4991319;28;20552;-74
2021/05/15 03:51:35;;;;;;;3.20;1.83;;;;;;;4.63;86.62;92045.41;4975857;28;20054;-74
2021/05/15 03:54:01;;;;;;;5.57;1.90;;;;;;;4.65;86.73;92032.97;4992829;28;20046;-74
2021/05/15 03:56:26;;;;;;;4.95;2.17;;;;;;;4.71;87.43;92039.69;4991705;28;20069;-75
2021/05/15 03:58:53;;;;;;;3.40;2.00;;;;;;;4.71;86.93;92034.50;4980389;28;20040;-74
2021/05/15 04:01:19;;;;;;;5.55;2.00;;;;;;;4.75;86.75;92037.34;4984800;28;20052;-75
2021/05/15 04:03:45;;;;;;;4.35;2.10;;;;;;;4.77;86.79;92051.63;4990536;28;20045;-75
2021/05/15 04:06:11;;;;;;;4.45;1.95;;;;;;;4.78;87.00;92050.56;4991488;28;20051;-75
2021/05/15 04:08:36;;;;;;;7.65;2.17;;;;;;;4.80;86.92;92056.28;4989119;28;20058;-74
2021/05/15 04:11:02;;;;;;;3.33;1.90;;;;;;;4.82;86.80;92053.44;4974359;28;20074;-75
2021/05/15 04:13:43;;;;;;;5.95;2.95;;;;;;;4.85;86.82;92041.75;4991337;28;20500;-74
2021/05/15 04:16:13;;;;;;;7.72;4.70;;;;;;;4.92;86.78;92047.47;4973962;28;20472;-74
2021/05/15 04:18:39;;;;;;;8.48;5.00;;;;;;;5.01;86.45;92035.50;4990648;28;20493;-74
2021/05/15 04:21:05;;;;;;;9.10;4.78;;;;;;;5.07;86.19;92038.88;4973879;28;20113;-74
2021/05/15 04:23:31;;;;;;;5.15;3.00;;;;;;;5.15;86.09;92035.72;4990744;28;20508;-74
2021/05/15 04:25:56;;;;;;;5.53;3.00;;;;;;;5.25;86.11;92045.34;4991589;28;20048;-75
2021/05/15 04:28:23;;;;;;;5.55;3.15;;;;;;;5.31;85.85;92045.03;4973433;28;20198;-74
2021/05/15 04:30:49;;;;;;;5.57;2.80;;;;;;;5.33;85.06;92048.13;4991502;28;20051;-74
2021/05/15 04:33:14;;;;;;;7.13;2.40;;;;;;;5.38;84.98;92047.34;4957313;28;20101;-74
2021/05/15 04:35:40;;;;;;;3.45;1.80;;;;;;;5.46;84.86;92057.19;4990724;28;20061;-74
2021/05/15 04:38:07;;;;;;;3.85;2.03;;;;;;;5.55;84.46;92044.44;4990820;28;20041;-74
2021/05/15 04:40:35;;;;;;;6.75;2.13;;;;;;;5.67;84.19;92044.13;4973288;28;20050;-75
2021/05/15 04:43:01;;;;;;;3.83;2.17;;;;;;;5.78;84.06;92049.00;4973320;28;20101;-74
2021/05/15 04:45:32;;;;;;;5.03;2.50;;;;;;;5.94;83.45;92047.16;4988014;28;20046;-74
2021/05/15 04:47:58;;;;;;;3.75;2.35;;;;;;;6.10;83.32;92054.88;4973119;28;20049;-74
2021/05/15 04:50:24;;;;;;;5.95;2.65;;;;;;;6.25;83.66;92057.38;4990735;28;20042;-74
2021/05/15 04:52:51;;;;;;;5.45;2.50;;;;;;;6.42;83.40;92059.63;4990612;28;20489;-74
2021/05/15 04:55:17;;;;;;;6.43;2.30;;;;;;;6.62;83.30;92062.09;4973399;28;20049;-74
2021/05/15 04:57:44;;;;;;;4.97;2.70;;;;;;;6.85;83.35;92050.19;4974475;28;20041;-75
2021/05/15 05:00:10;;;;;;;6.50;2.80;;;;;;;7.12;82.61;92041.09;4992424;28;20042;-76
2021/05/15 05:02:35;;;;;;;4.78;2.42;;;;;;;7.33;81.77;92048.72;4959110;28;20050;-77
2021/05/15 05:05:01;;;;;;;3.83;2.22;;;;;;;7.53;81.90;92045.88;4971022;28;20042;-74
2021/05/15 05:07:27;;;;;;;3.67;2.15;;;;;;;7.70;81.52;92048.81;4990486;28;20101;-74
2021/05/15 05:09:52;;;;;;;6.75;2.55;;;;;;;7.68;81.11;92047.56;4989929;28;20065;-74
2021/05/15 05:12:18;;;;;;;4.85;2.45;;;;;;;7.85;81.07;92055.66;4990976;28;20046;-74
2021/05/15 05:14:44;;;;;;;4.93;2.78;;;;;;;7.83;81.63;92049.19;4972599;28;20046;-74
2021/05/15 05:17:10;;;;;;;4.93;2.65;;;;;;;7.95;80.98;92054.78;4972738;28;20050;-74
2021/05/15 05:19:36;;;;;;;4.07;2.40;;;;;;;8.02;80.77;92063.03;4990458;28;20141;-76
2021/05/15 05:22:03;;;;;;;3.40;2.33;;;;;;;8.09;80.76;92063.47;4973065;28;20077;-74
2021/05/15 05:24:32;;;;;;;4.47;2.20;;;;;;;8.17;79.19;92062.06;4972761;28;20065;-75
2021/05/15 05:27:00;;;;;;;4.13;2.30;;;;;;;8.29;78.86;92066.88;4990360;28;20042;-75
2021/05/15 05:29:25;;;;;;;4.65;2.28;;;;;;;8.38;78.03;92062.56;4975386;28;20042;-75
2021/05/15 05:31:52;;;;;;;4.53;2.28;;;;;;;8.43;77.75;92059.91;4973555;28;20053;-75
2021/05/15 05:34:19;;;;;;;11.25;2.50;;;;;;;8.54;77.33;92065.75;4990249;28;20048;-75
2021/05/15 05:36:46;;;;;;;3.72;2.08;;;;;;;8.59;77.33;92063.06;4990294;28;20100;-75
2021/05/15 05:39:18;;;;;;;4.00;2.10;;;;;;;8.66;75.71;92073.16;4990472;28;20057;-75
2021/05/15 05:41:47;;;;;;;4.53;2.40;;;;;;;8.76;75.71;92062.56;4988673;28;20035;-75
2021/05/15 05:44:13;;;;;;;4.55;2.60;;;;;;;8.87;76.60;92069.19;4990135;28;20042;-75
2021/05/15 05:46:39;;;;;;;5.95;2.80;;;;;;;8.91;75.16;92080.59;4976090;28;20101;-75
2021/05/15 05:49:05;;;;;;;4.20;2.00;;;;;;;8.90;73.03;92068.59;4970300;28;20143;-75
2021/05/15 05:51:31;;;;;;;4.32;2.03;;;;;;;9.05;73.46;92077.25;4970446;28;20046;-75
2021/05/15 05:53:56;;;;;;;4.20;2.30;;;;;;;9.06;74.69;92073.59;4969240;28;20091;-75
2021/05/15 05:56:22;;;;;;;5.03;2.45;;;;;;;9.04;74.27;92066.03;4966875;28;20058;-75
2021/05/15 05:58:48;;;;;;;10.75;3.50;;;;;;;9.05;78.88;92065.00;4953942;28;20062;-76
2021/05/15 06:01:15;;;;;;;5.82;3.40;;;;;;;9.15;78.44;92070.03;4956764;28;20054;-75
2021/05/15 06:03:42;;;;;;;10.52;3.10;;;;;;;8.96;79.31;92082.34;4973782;28;20049;-75
2021/05/15 06:06:07;;;;;;;5.85;3.22;;;;;;;9.00;78.67;92088.53;4974446;28;20149;-75
2021/05/15 06:08:33;;;;;;;7.75;3.42;;;;;;;9.22;78.39;92084.56;4956597;28;20081;-75
2021/05/15 06:10:59;;;;;;;5.55;3.30;;;;;;;8.86;79.36;92090.34;4973280;28;20413;-75
2021/05/15 06:13:26;;;;;;;6.22;3.15;;;;;;;8.71;78.00;92081.69;4973830;28;20037;-75
2021/05/15 06:15:52;;;;;;;3.67;2.50;;;;;;;8.44;78.67;92084.91;4974546;28;20055;-75
2021/05/15 06:18:18;;;;;;;5.15;3.30;;;;;;;8.49;79.66;92089.31;4954882;28;20042;-76
2021/05/15 06:20:44;;;;;;;5.68;2.53;;;;;;;8.51;77.68;92080.16;4972549;28;20066;-76
2021/05/15 06:23:10;;;;;;;3.85;2.30;;;;;;;8.48;76.57;92085.91;4974535;28;20038;-77
2021/05/15 06:25:36;;;;;;;4.65;2.30;;;;;;;8.39;76.39;92092.03;4958880;28;20106;-78
2021/05/15 06:28:02;;;;;;;4.95;2.70;;;;;;;8.42;77.84;92094.88;4973184;28;20401;-79
2021/05/15 06:30:27;;;;;;;5.47;2.70;;;;;;;8.59;77.31;92089.16;4959335;28;20382;-78
2021/05/15 06:32:53;;;;;;;5.10;2.65;;;;;;;8.73;77.67;92089.22;4972148;28;20074;-78
2021/05/15 06:35:19;;;;;;;7.15;3.00;;;;;;;8.89;77.06;92094.97;4957638;28;20409;-78
2021/05/15 06:37:45;;;;;;;7.82;2.80;;;;;;;9.01;76.41;92094.56;4974314;28;20046;-75
2021/05/15 06:40:11;;;;;;;4.00;2.42;;;;;;;9.19;75.61;92088.53;4973184;28;20046;-75
2021/05/15 06:42:37;;;;;;;3.90;2.33;;;;;;;9.26;73.04;92086.31;4972658;28;20093;-76
2021/05/15 06:45:05;;;;;;;5.10;1.95;;;;;;;9.37;72.18;92092.91;4953164;28;20637;-77
2021/05/15 06:47:31;;;;;;;8.05;1.90;;;;;;;9.28;70.78;92089.41;4962197;28;20109;-76
2021/05/15 06:49:58;;;;;;;3.97;1.83;;;;;;;9.45;69.56;92090.69;4973270;28;20399;-76
2021/05/15 06:52:24;;;;;;;3.47;1.70;;;;;;;9.34;69.66;92098.72;4987987;28;20050;-75
2021/05/15 06:54:50;;;;;;;3.85;1.80;;;;;;;9.36;69.30;92101.03;4991542;28;20058;-75
2021/05/15 06:57:17;;;;;;;4.22;2.25;;;;;;;9.11;71.36;92104.84;4992028;28;20072;-76
2021/05/15 06:59:42;;;;;;;4.20;1.92;;;;;;;9.18;71.67;92100.00;4980636;28;20457;-76
2021/05/15 07:02:08;;;;;;;5.38;1.85;;;;;;;9.28;71.43;92094.63;4981018;28;20418;-75
2021/05/15 07:04:34;;;;;;;3.85;1.80;;;;;;;9.10;72.15;92106.66;4991672;28;20061;-76
2021/05/15 07:07:00;;;;;;;6.57;2.00;;;;;;;8.84;73.45;92108.88;5008286;28;20424;-76
2021/05/15 07:09:25;;;;;;;4.38;1.83;;;;;;;8.95;73.06;92110.28;4992602;28;20050;-76
2021/05/15 07:11:51;;;;;;;3.88;2.05;;;;;;;8.73;75.07;92110.09;4976165;28;20065;-76
2021/05/15 07:14:17;;;;;;;3.42;2.03;;;;;;;8.71;75.52;92115.63;4992632;28;20097;-77
2021/05/15 07:16:43;;;;;;;3.70;1.50;;;;;;;8.89;71.84;92114.06;4974617;28;20073;-75
2021/05/15 07:19:09;;;;;;;3.72;2.05;;;;;;;8.96;74.50;92114.47;4991412;28;20042;-75
2021/05/15 07:21:35;;;;;;;4.40;1.70;;;;;;;8.93;72.82;92117.63;4994684;28;20571;-74
2021/05/15 07:24:02;;;;;;;3.92;2.00;;;;;;;8.65;74.60;92111.53;4991000;28;20121;-75
2021/05/15 07:26:29;;;;;;;3.28;1.60;;;;;;;8.49;72.68;92118.78;4939961;28;20050;-76
2021/05/15 07:28:55;;;;;;;2.85;1.60;;;;;;;8.78;73.62;92120.47;4975541;28;20531;-76
2021/05/15 07:31:20;;;;;;;3.08;1.48;;;;;;;8.84;71.48;92129.78;4974388;28;20027;-76
2021/05/15 07:33:46;;;;;;;2.70;1.50;;;;;;;8.96;72.77;92119.69;4990964;28;20054;-75
2021/05/15 07:36:12;;;;;;;6.88;1.40;;;;;;;8.44;73.01;92118.84;4987332;28;20092;-76
2021/05/15 07:38:38;;;;;;;1.38;1.13;;;;;;;8.42;71.49;92126.19;4991052;28;20054;-75
2021/05/15 07:41:05;;;;;;;2.35;1.33;;;;;;;8.68;72.38;92133.66;4992150;28;20042;-76
2021/05/15 07:43:30;;;;;;;4.53;1.42;;;;;;;8.89;72.56;92131.53;4991856;28;20497;-74
2021/05/15 07:45:58;;;;;;;3.97;1.48;;;;;;;9.15;71.40;92121.47;4982819;28;20055;-75
2021/05/15 07:48:37;;;;;;;2.72;1.60;;;;;;;9.08;70.92;92123.69;4955039;28;20619;-75
2021/05/15 07:51:05;;;;;;;6.20;1.73;;;;;;;9.20;69.62;92123.22;4969765;28;20053;-75
2021/05/15 07:53:30;;;;;;;3.15;1.80;;;;;;;9.03;71.33;92123.75;4969147;28;20046;-76
2021/05/15 07:55:56;;;;;;;3.30;2.00;;;;;;;9.16;73.18;92123.03;4966968;28;20161;-75
2021/05/15 07:58:22;;;;;;;4.43;1.80;;;;;;;9.22;71.88;92126.34;4984646;28;20041;-75
2021/05/15 08:00:48;;;;;;;3.88;1.70;;;;;;;9.50;71.48;92132.41;4970167;28;20051;-75
2021/05/15 08:03:13;;;;;;;3.90;1.90;;;;;;;9.61;70.43;92136.38;4970628;28;20045;-75
2021/05/15 08:05:39;;;;;;;4.00;2.08;;;;;;;9.31;72.81;92133.22;4973061;28;20433;-75
2021/05/15 08:08:05;;;;;;;4.95;1.90;;;;;;;9.40;72.92;92135.19;4959524;28;20181;-75
2021/05/15 08:10:32;;;;;;;4.38;2.40;;;;;;;9.20;74.90;92129.22;4962861;28;20093;-75
2021/05/15 08:12:58;;;;;;;3.60;1.90;;;;;;;9.18;74.18;92133.97;4971518;28;20035;-76
2021/05/15 08:15:24;;;;;;;4.80;2.60;;;;;;;9.31;75.66;92130.63;4957793;28;20137;-76
2021/05/15 08:17:51;;;;;;;3.50;2.00;;;;;;;9.28;73.58;92125.97;4966262;28;20050;-74
2021/05/15 08:20:17;;;;;;;3.88;2.13;;;;;;;9.37;74.69;92129.47;4966536;28;20523;-75
2021/05/15 08:22:43;;;;;;;4.50;1.92;;;;;;;9.57;72.24;92132.81;4970865;28;20042;-75
2021/05/15 08:25:14;;;;;;;3.17;1.80;;;;;;;9.38;73.22;92141.47;4969704;28;20394;-76
2021/05/15 08:27:41;;;;;;;2.85;1.75;;;;;;;9.51;71.91;92137.34;4971180;28;20046;-75
2021/05/15 08:30:17;;;;;;;4.05;1.90;;;;;;;9.57;71.00;92138.03;4982939;28;20124;-74
2021/05/15 08:32:45;;;;;;;3.92;2.03;;;;;;;9.88;72.02;92137.47;4950935;28;20059;-75
2021/05/15 08:35:48;;;;;;;3.55;1.67;;;;;;;9.62;71.69;92139.78;4969301;28;20042;-75
2021/05/15 08:38:13;;;;;;;4.20;1.90;;;;;;;9.85;71.09;92133.63;4967523;28;20070;-75
2021/05/15 08:40:39;;;;;;;3.35;1.65;;;;;;;9.58;71.59;92142.97;4953767;28;20081;-76
2021/05/15 08:43:07;;;;;;;3.55;1.80;;;;;;;9.71;72.75;92138.84;4964479;28;20158;-76
2021/05/15 08:45:33;;;;;;;4.68;1.60;;;;;;;9.63;72.48;92136.88;4973270;28;20063;-76
2021/05/15 08:48:02;;;;;;;3.70;1.88;;;;;;;9.95;74.70;92128.22;4989826;28;20034;-77
2021/05/15 08:50:29;;;;;;;4.22;1.80;;;;;;;9.97;72.96;92136.53;4986524;28;20065;-76
2021/05/15 08:52:56;;;;;;;6.93;1.80;;;;;;;9.85;70.04;92143.31;4990188;28;20039;-75
2021/05/15 08:55:25;;;;;;;3.80;1.77;;;;;;;10.18;70.67;92141.38;4990118;28;20108;-76
2021/05/15 08:57:51;;;;;;;3.38;1.77;;;;;;;10.54;70.78;92138.84;4987534;28;20042;-76
2021/05/15 09:00:37;;;;;;;3.47;1.70;;;;;;;10.42;71.78;92135.94;4990322;28;20046;-76
2021/05/15 09:03:07;;;;;;;2.33;1.42;;;;;;;9.94;71.12;92137.09;4969278;28;20104;-77
2021/05/15 09:05:36;;;;;;;4.72;2.00;;;;;;;9.93;69.90;92140.00;4970800;28;20030;-76
2021/05/15 09:08:04;;;;;;;3.33;1.90;;;;;;;10.06;71.66;92133.22;4974456;28;20496;-76
2021/05/15 09:10:34;;;;;;;4.03;1.98;;;;;;;10.22;72.42;92131.84;4955503;28;20030;-76
2021/05/15 09:13:10;;;;;;;3.30;1.60;;;;;;;10.05;72.28;92126.47;4971141;28;20110;-77
2021/05/15 09:15:47;;;;;;;3.70;1.80;;;;;;;10.50;71.64;92127.41;4988932;28;20046;-77
2021/05/15 09:18:18;;;;;;;3.67;1.80;;;;;;;10.48;70.07;92128.78;4987024;28;20034;-77
2021/05/15 09:20:46;;;;;;;;;;;;;;;10.83;70.34;92129.88;4975119;28;20054;-77
2021/05/15 09:23:27;;;;;;;3.22;1.58;;;;;;;10.45;68.29;92124.91;4971007;28;20008;-76
2021/05/15 09:26:02;;;;;;;3.78;1.50;;;;;;;10.87;68.58;92133.41;4994855;28;20132;-77
2021/05/15 09:28:31;;;;;;;3.22;1.67;;;;;;;11.24;66.12;92124.47;4969002;28;20041;-77
2021/05/15 09:30:57;;;;;;;2.40;1.33;;;;;;;11.26;64.54;92134.66;4973879;28;20043;-76
2021/05/15 09:33:22;;;;;;;3.38;1.40;;;;;;;11.11;66.32;92135.00;4981327;28;20039;-75
2021/05/15 09:35:48;;;;;;;5.75;2.20;;;;;;;10.97;65.22;92130.59;4993657;28;20049;-77
2021/05/15 09:38:14;;;;;;;3.80;1.75;;;;;;;10.75;65.77;92127.94;4976946;28;20423;-77
2021/05/15 09:40:40;;;;;;;1.90;1.25;;;;;;;10.81;65.79;92124.16;4994124;28;20137;-76
2021/05/15 09:43:07;;;;;;;2.08;1.27;;;;;;;10.46;63.84;92129.06;4959494;28;20416;-76
2021/05/15 09:45:36;;;;;;;6.03;3.08;;;;;;;10.87;66.62;92130.03;4991447;28;20044;-76
2021/05/15 09:48:09;;;;;;;3.33;1.42;;;;;;;11.10;64.98;92133.44;4975807;28;20852;-76
2021/05/15 09:50:37;;;;;;;4.10;1.67;;;;;;;11.02;65.57;92125.22;4976021;28;20038;-76
2021/05/15 09:53:13;;;;;;;3.30;1.50;;;;;;;11.26;65.91;92137.28;4992225;28;20070;-77
2021/05/15 09:55:42;;;;;;;4.30;1.50;;;;;;;11.07;66.92;92131.44;4953867;28;20050;-77
2021/05/15 09:58:10;;;;;;;2.83;1.40;;;;;;;10.90;67.08;92132.84;4973988;28;20560;-76
2021/05/15 10:00:43;;;;;;;3.45;1.63;;;;;;;10.83;66.69;92124.63;4973321;28;20058;-78
2021/05/15 10:03:25;;;;;;;2.15;1.48;;;;;;;10.52;67.05;92124.50;4988148;28;20157;-76
2021/05/15 10:06:09;;;;;;;2.35;1.40;;;;;;;11.00;65.87;92122.13;4967174;28;20104;-77
2021/05/15 10:08:42;;;;;;;3.33;1.50;;;;;;;10.90;66.55;92118.97;4991698;28;20042;-79
2021/05/15 10:11:08;;;;;;;2.45;1.30;;;;;;;10.69;65.34;92114.19;4972573;28;20057;-77
2021/05/15 10:13:35;;;;;;;4.25;2.20;;;;;;;10.40;65.09;92117.94;4988024;28;20043;-78
2021/05/15 10:16:02;;;;;;;33.75;18.38;;;;;;;10.84;64.10;92113.06;4989083;28;20042;-77
2021/05/15 10:18:28;;;;;;;3.80;1.40;;;;;;;11.04;62.38;92104.00;4972494;28;20049;-77
2021/05/15 10:20:54;;;;;;;3.05;1.40;;;;;;;11.23;63.25;92111.66;4991923;28;20511;-78
2021/05/15 10:23:38;;;;;;;2.28;1.20;;;;;;;11.51;62.66;92104.44;4975695;28;20038;-79
2021/05/15 10:26:10;;;;;;;3.70;1.95;;;;;;;11.31;62.03;92110.94;4975410;28;20046;-77
2021/05/15 10:28:39;;;;;;;4.82;2.90;;;;;;;11.39;62.08;92109.44;4991847;28;20038;-78
2021/05/15 10:31:16;;;;;;;2.97;1.30;;;;;;;11.72;60.78;92102.06;5005738;28;20097;-77
2021/05/15 10:33:48;;;;;;;3.85;1.40;;;;;;;11.67;61.53;92100.34;4989523;28;20053;-78
2021/05/15 10:36:24;;;;;;;;;;;;;;;11.52;61.77;92102.56;4983428;28;20038;-79
2021/05/15 10:38:54;;;;;;;4.65;1.50;;;;;;;11.93;62.92;92107.56;4989150;28;20295;-78
2021/05/15 10:41:22;;;;;;;4.22;1.40;;;;;;;11.88;62.00;92099.84;4977838;28;20118;-77
2021/05/15 10:43:49;;;;;;;2.70;1.25;;;;;;;12.11;59.86;92097.13;4992378;28;20026;-77
2021/05/15 10:46:27;;;;;;;2.60;1.30;;;;;;;11.39;61.38;92096.34;4970614;28;20090;-77
2021/05/15 10:49:10;;;;;;;2.88;1.58;;;;;;;11.78;61.07;92089.59;4990793;28;20039;-78
2021/05/15 10:51:41;;;;;;;3.50;1.50;;;;;;;12.15;60.82;92087.59;4970058;28;20072;-78
2021/05/15 10:54:08;;;;;;;2.80;1.50;;;;;;;12.29;59.33;92081.16;4989663;28;20039;-77
2021/05/15 10:56:34;;;;;;;2.45;1.40;;;;;;;11.95;59.56;92088.91;4987781;28;20385;-77
2021/05/15 10:59:10;;;;;;;2.53;1.30;;;;;;;12.10;58.72;92083.25;4982121;28;20049;-77
2021/05/15 11:01:44;;;;;;;3.45;1.65;;;;;;;12.14;57.89;92086.81;4986687;28;20133;-77
2021/05/15 11:04:22;;;;;;;2.55;1.40;;;;;;;11.92;59.79;92079.03;4988754;28;20039;-77
2021/05/15 11:07:03;;;;;;;1.75;1.10;;;;;;;12.11;61.25;92084.03;4986248;28;20034;-77
2021/05/15 11:09:29;;;;;;;5.43;1.30;;;;;;;12.37;59.99;92076.22;4992507;28;20527;-77
2021/05/15 11:12:08;;;;;;;1.83;1.20;;;;;;;12.33;59.30;92073.41;4991435;28;20065;-76
2021/05/15 11:14:36;;;;;;;1.83;1.08;;;;;;;12.45;57.48;92075.44;4992010;28;20527;-77
2021/05/15 11:17:23;;;;;;;2.28;1.30;;;;;;;12.37;57.58;92070.97;4992188;28;20073;-77
2021/05/15 11:19:56;;;;;;;2.35;1.40;;;;;;;12.45;57.88;92075.44;4990609;28;20052;-77
2021/05/15 11:22:50;;;;;;;1.25;1.10;;;;;;;12.16;57.40;92063.69;4992269;28;20074;-77
2021/05/15 11:25:18;;;;;;;2.58;1.40;;;;;;;11.71;59.75;92063.81;4981692;28;20428;-76
2021/05/15 11:27:46;;;;;;;2.92;1.27;;;;;;;12.17;58.17;92059.97;4991512;28;20062;-76
2021/05/15 11:30:17;;;;;;;2.10;1.33;;;;;;;12.12;57.75;92065.34;4982885;28;20046;-78
2021/05/15 11:33:06;;;;;;;1.90;1.33;;;;;;;12.27;58.18;92059.69;4995759;28;20048;-78
2021/05/15 11:35:43;;;;;;;2.95;1.27;;;;;;;12.40;56.99;92054.59;4990281;28;20046;-78
2021/05/15 11:38:15;;;;;;;2.00;1.13;;;;;;;12.57;55.11;92051.22;4972337;28;20046;-79
2021/05/15 11:40:50;;;;;;;1.73;1.00;;;;;;;12.64;53.54;92052.28;4989694;28;20042;-78
2021/05/15 11:43:22;;;;;;;4.07;1.20;;;;;;;12.90;55.65;92046.25;4991476;28;20041;-78